Terminal Aerodrome Forecast
Issued by NWS

Home | Current Version | Previous Version | Text Only | Print | Product List | Glossary On
Versions: 1 2 3 4 5 6 7 8 9 10 11 12 13 14 15
000
FTUS43 KICT 070520
TAFCNU
TAF
KCNU 070520Z 0706/0806 33006KT P6SM -SHRA VCTS SCT015 OVC050CB
     FM071200 02007KT P6SM VCSH SCT015 OVC040
     FM071500 04007KT P6SM OVC050
     FM072100 04008KT P6SM VCSH BKN050=

USA.gov is the U.S. government's official web portal to all federal, state and local government web resources and services.